Sedro Woolley, Washington
Current Conditions -  °F | °C
As of 11:40 AM on Thursday 18 Dec 2014 (Local Time) from KBVS Reporting Station
Overcast Overcast  
Wind Chill: 10°   Ceiling: 3400
Heat Index: 10°   Visibility: 10mi
Dew Point:   Wind: 12mph
Humidity: 82%   Direction: 100°E
Pressure: 29.88"   Gusts: NA
Location:  48.54°N, 122.19°W
Report Text: KBVS 181940Z AUTO 10010KT 10SM OVC034 10/07 A2988 RMK A01 P000
Loading
Personal Weather Stations






























Interactive Weather Map New forecast layout! Learn more

10-Day Weather Forecast

Advertisements
Track Severe Weather on mobile